sensor_id;sensor_type;location;lat;lon;timestamp;temperature;humidity
65239;SHT30;51827;51.186;6.926;2023-03-14T00:00:00;18.99;53.41
65239;SHT30;51827;51.186;6.926;2023-03-14T00:01:09;19.00;53.37
65239;SHT30;51827;51.186;6.926;2023-03-14T00:02:09;18.99;53.41
65239;SHT30;51827;51.186;6.926;2023-03-14T00:03:09;19.00;53.43
65239;SHT30;51827;51.186;6.926;2023-03-14T00:04:10;19.00;53.38
65239;SHT30;51827;51.186;6.926;2023-03-14T00:05:10;18.98;53.36
65239;SHT30;51827;51.186;6.926;2023-03-14T00:06:12;18.99;53.37
65239;SHT30;51827;51.186;6.926;2023-03-14T00:07:13;19.00;53.41
65239;SHT30;51827;51.186;6.926;2023-03-14T00:08:14;18.99;53.35
65239;SHT30;51827;51.186;6.926;2023-03-14T00:09:14;19.00;53.37
65239;SHT30;51827;51.186;6.926;2023-03-14T00:10:15;18.99;53.35
65239;SHT30;51827;51.186;6.926;2023-03-14T00:11:18;19.00;53.34
65239;SHT30;51827;51.186;6.926;2023-03-14T00:12:18;18.98;53.30
65239;SHT30;51827;51.186;6.926;2023-03-14T00:13:19;19.00;53.34
65239;SHT30;51827;51.186;6.926;2023-03-14T00:14:19;18.98;53.36
65239;SHT30;51827;51.186;6.926;2023-03-14T00:15:19;18.99;53.32
65239;SHT30;51827;51.186;6.926;2023-03-14T00:16:20;19.02;53.33
65239;SHT30;51827;51.186;6.926;2023-03-14T00:17:20;18.99;53.34
65239;SHT30;51827;51.186;6.926;2023-03-14T00:18:21;19.00;53.33
65239;SHT30;51827;51.186;6.926;2023-03-14T00:19:21;18.99;53.36
65239;SHT30;51827;51.186;6.926;2023-03-14T00:20:21;18.96;53.38
65239;SHT30;51827;51.186;6.926;2023-03-14T00:21:21;18.98;53.36
65239;SHT30;51827;51.186;6.926;2023-03-14T00:22:22;18.98;53.34
65239;SHT30;51827;51.186;6.926;2023-03-14T00:23:22;18.99;53.34
65239;SHT30;51827;51.186;6.926;2023-03-14T00:24:22;18.96;53.35
65239;SHT30;51827;51.186;6.926;2023-03-14T00:25:22;18.96;53.36
65239;SHT30;51827;51.186;6.926;2023-03-14T00:26:23;18.98;53.35
65239;SHT30;51827;51.186;6.926;2023-03-14T00:27:23;18.98;53.37
65239;SHT30;51827;51.186;6.926;2023-03-14T00:28:23;18.99;53.36
65239;SHT30;51827;51.186;6.926;2023-03-14T00:29:23;18.98;53.36
65239;SHT30;51827;51.186;6.926;2023-03-14T00:30:24;19.02;53.34
65239;SHT30;51827;51.186;6.926;2023-03-14T00:31:24;18.99;53.33
65239;SHT30;51827;51.186;6.926;2023-03-14T00:32:25;18.99;53.36
65239;SHT30;51827;51.186;6.926;2023-03-14T00:33:25;18.96;53.32
65239;SHT30;51827;51.186;6.926;2023-03-14T00:34:28;18.99;53.34
65239;SHT30;51827;51.186;6.926;2023-03-14T00:35:29;18.98;53.31
65239;SHT30;51827;51.186;6.926;2023-03-14T00:36:29;18.98;53.26
65239;SHT30;51827;51.186;6.926;2023-03-14T00:37:29;18.99;53.33
65239;SHT30;51827;51.186;6.926;2023-03-14T00:38:31;18.99;53.31
65239;SHT30;51827;51.186;6.926;2023-03-14T00:39:31;19.00;53.26
65239;SHT30;51827;51.186;6.926;2023-03-14T00:40:31;18.98;53.26
65239;SHT30;51827;51.186;6.926;2023-03-14T00:41:31;18.99;53.29
65239;SHT30;51827;51.186;6.926;2023-03-14T00:42:32;18.99;53.30
65239;SHT30;51827;51.186;6.926;2023-03-14T00:43:32;18.99;53.28
65239;SHT30;51827;51.186;6.926;2023-03-14T00:44:33;18.96;53.29
65239;SHT30;51827;51.186;6.926;2023-03-14T00:45:33;18.99;53.25
65239;SHT30;51827;51.186;6.926;2023-03-14T00:46:33;18.99;53.33
65239;SHT30;51827;51.186;6.926;2023-03-14T00:47:33;18.99;53.25
65239;SHT30;51827;51.186;6.926;2023-03-14T00:48:34;18.96;53.25
65239;SHT30;51827;51.186;6.926;2023-03-14T00:49:34;18.98;53.25
65239;SHT30;51827;51.186;6.926;2023-03-14T00:50:35;18.98;53.29
65239;SHT30;51827;51.186;6.926;2023-03-14T00:51:35;18.98;53.26
65239;SHT30;51827;51.186;6.926;2023-03-14T00:52:35;18.96;53.28
65239;SHT30;51827;51.186;6.926;2023-03-14T00:53:37;19.00;53.21
65239;SHT30;51827;51.186;6.926;2023-03-14T00:54:37;18.98;53.24
65239;SHT30;51827;51.186;6.926;2023-03-14T00:55:38;18.98;53.22
65239;SHT30;51827;51.186;6.926;2023-03-14T00:56:39;18.98;53.24
65239;SHT30;51827;51.186;6.926;2023-03-14T00:57:39;18.98;53.26
65239;SHT30;51827;51.186;6.926;2023-03-14T00:58:40;18.98;53.20
65239;SHT30;51827;51.186;6.926;2023-03-14T00:59:40;18.96;53.21
65239;SHT30;51827;51.186;6.926;2023-03-14T01:00:41;18.99;53.22
65239;SHT30;51827;51.186;6.926;2023-03-14T01:01:41;18.98;53.19
65239;SHT30;51827;51.186;6.926;2023-03-14T01:02:42;19.00;53.18
65239;SHT30;51827;51.186;6.926;2023-03-14T01:03:42;18.98;53.21
65239;SHT30;51827;51.186;6.926;2023-03-14T01:04:42;18.99;53.17
65239;SHT30;51827;51.186;6.926;2023-03-14T01:05:43;18.99;53.18
65239;SHT30;51827;51.186;6.926;2023-03-14T01:06:43;18.98;53.19
65239;SHT30;51827;51.186;6.926;2023-03-14T01:07:43;18.96;53.20
65239;SHT30;51827;51.186;6.926;2023-03-14T01:08:44;18.95;53.16
65239;SHT30;51827;51.186;6.926;2023-03-14T01:09:44;18.95;53.21
65239;SHT30;51827;51.186;6.926;2023-03-14T01:10:45;18.96;53.23
65239;SHT30;51827;51.186;6.926;2023-03-14T01:11:45;18.96;53.18
65239;SHT30;51827;51.186;6.926;2023-03-14T01:12:45;18.95;53.20
65239;SHT30;51827;51.186;6.926;2023-03-14T01:13:46;18.96;53.21
65239;SHT30;51827;51.186;6.926;2023-03-14T01:14:47;18.96;53.18
65239;SHT30;51827;51.186;6.926;2023-03-14T01:15:47;18.95;53.23
65239;SHT30;51827;51.186;6.926;2023-03-14T01:16:47;18.96;53.19
65239;SHT30;51827;51.186;6.926;2023-03-14T01:17:47;18.96;53.23
65239;SHT30;51827;51.186;6.926;2023-03-14T01:18:48;18.94;53.19
65239;SHT30;51827;51.186;6.926;2023-03-14T01:19:48;18.92;53.22
65239;SHT30;51827;51.186;6.926;2023-03-14T01:20:49;18.94;53.24
65239;SHT30;51827;51.186;6.926;2023-03-14T01:21:49;18.95;53.22
65239;SHT30;51827;51.186;6.926;2023-03-14T01:22:49;18.94;53.23
65239;SHT30;51827;51.186;6.926;2023-03-14T01:23:51;18.94;53.23
65239;SHT30;51827;51.186;6.926;2023-03-14T01:24:52;18.95;53.21
65239;SHT30;51827;51.186;6.926;2023-03-14T01:25:52;18.96;53.18
65239;SHT30;51827;51.186;6.926;2023-03-14T01:26:52;18.92;53.21
65239;SHT30;51827;51.186;6.926;2023-03-14T01:27:53;18.94;53.22
65239;SHT30;51827;51.186;6.926;2023-03-14T01:28:54;18.94;53.24
65239;SHT30;51827;51.186;6.926;2023-03-14T01:29:55;18.95;53.24
65239;SHT30;51827;51.186;6.926;2023-03-14T01:30:55;18.94;53.22
65239;SHT30;51827;51.186;6.926;2023-03-14T01:31:55;18.92;53.19
65239;SHT30;51827;51.186;6.926;2023-03-14T01:32:55;18.91;53.24
65239;SHT30;51827;51.186;6.926;2023-03-14T01:33:56;18.95;53.23
65239;SHT30;51827;51.186;6.926;2023-03-14T01:34:56;18.94;53.24
65239;SHT30;51827;51.186;6.926;2023-03-14T01:35:56;18.95;53.27
65239;SHT30;51827;51.186;6.926;2023-03-14T01:36:57;18.92;53.23
65239;SHT30;51827;51.186;6.926;2023-03-14T01:37:57;18.94;53.24
65239;SHT30;51827;51.186;6.926;2023-03-14T01:38:57;18.92;53.21
65239;SHT30;51827;51.186;6.926;2023-03-14T01:39:57;18.92;53.25
65239;SHT30;51827;51.186;6.926;2023-03-14T01:40:58;18.95;53.22
65239;SHT30;51827;51.186;6.926;2023-03-14T01:42:00;18.92;53.23
65239;SHT30;51827;51.186;6.926;2023-03-14T01:43:15;18.94;53.22
65239;SHT30;51827;51.186;6.926;2023-03-14T01:44:16;18.96;53.23
65239;SHT30;51827;51.186;6.926;2023-03-14T01:46:54;18.94;53.21
65239;SHT30;51827;51.186;6.926;2023-03-14T01:47:54;18.92;53.21
65239;SHT30;51827;51.186;6.926;2023-03-14T01:49:15;18.92;53.22
65239;SHT30;51827;51.186;6.926;2023-03-14T01:50:16;18.91;53.18
65239;SHT30;51827;51.186;6.926;2023-03-14T01:51:27;18.91;53.23
65239;SHT30;51827;51.186;6.926;2023-03-14T01:52:35;18.92;53.22
65239;SHT30;51827;51.186;6.926;2023-03-14T01:53:38;18.92;53.21
65239;SHT30;51827;51.186;6.926;2023-03-14T01:54:53;18.92;53.21
65239;SHT30;51827;51.186;6.926;2023-03-14T01:55:55;18.92;53.23
65239;SHT30;51827;51.186;6.926;2023-03-14T01:57:02;18.91;53.20
65239;SHT30;51827;51.186;6.926;2023-03-14T01:58:03;18.89;53.24
65239;SHT30;51827;51.186;6.926;2023-03-14T01:59:06;18.92;53.23
65239;SHT30;51827;51.186;6.926;2023-03-14T02:00:16;18.91;53.20
65239;SHT30;51827;51.186;6.926;2023-03-14T02:01:20;18.92;53.26
65239;SHT30;51827;51.186;6.926;2023-03-14T02:02:21;18.92;53.20
65239;SHT30;51827;51.186;6.926;2023-03-14T02:03:23;18.89;53.22
65239;SHT30;51827;51.186;6.926;2023-03-14T02:04:28;18.91;53.22
65239;SHT30;51827;51.186;6.926;2023-03-14T02:05:32;18.89;53.20
65239;SHT30;51827;51.186;6.926;2023-03-14T02:06:44;18.91;53.20
65239;SHT30;51827;51.186;6.926;2023-03-14T02:07:50;18.91;53.22
65239;SHT30;51827;51.186;6.926;2023-03-14T02:08:51;18.89;53.26
65239;SHT30;51827;51.186;6.926;2023-03-14T02:09:52;18.92;53.22
65239;SHT30;51827;51.186;6.926;2023-03-14T02:10:53;18.88;53.20
65239;SHT30;51827;51.186;6.926;2023-03-14T02:11:54;18.92;53.19
65239;SHT30;51827;51.186;6.926;2023-03-14T02:12:56;18.92;53.23
65239;SHT30;51827;51.186;6.926;2023-03-14T02:13:57;18.94;53.19
65239;SHT30;51827;51.186;6.926;2023-03-14T02:14:58;18.91;53.20
65239;SHT30;51827;51.186;6.926;2023-03-14T02:15:58;18.89;53.23
65239;SHT30;51827;51.186;6.926;2023-03-14T02:17:00;18.91;53.22
65239;SHT30;51827;51.186;6.926;2023-03-14T02:18:02;18.88;53.22
65239;SHT30;51827;51.186;6.926;2023-03-14T02:19:03;18.91;53.23
65239;SHT30;51827;51.186;6.926;2023-03-14T02:20:30;18.88;53.25
65239;SHT30;51827;51.186;6.926;2023-03-14T02:22:46;18.92;53.20
65239;SHT30;51827;51.186;6.926;2023-03-14T02:23:57;18.89;53.23
65239;SHT30;51827;51.186;6.926;2023-03-14T02:26:03;18.88;53.22
65239;SHT30;51827;51.186;6.926;2023-03-14T02:26:36;18.89;53.17
65239;SHT30;51827;51.186;6.926;2023-03-14T02:27:38;18.89;53.23
65239;SHT30;51827;51.186;6.926;2023-03-14T02:28:39;18.88;53.18
65239;SHT30;51827;51.186;6.926;2023-03-14T02:29:54;18.91;53.23
65239;SHT30;51827;51.186;6.926;2023-03-14T02:30:55;18.88;53.14
65239;SHT30;51827;51.186;6.926;2023-03-14T02:31:55;18.86;53.20
65239;SHT30;51827;51.186;6.926;2023-03-14T02:32:59;18.88;53.22
65239;SHT30;51827;51.186;6.926;2023-03-14T02:34:00;18.89;53.25
65239;SHT30;51827;51.186;6.926;2023-03-14T02:35:06;18.88;53.23
65239;SHT30;51827;51.186;6.926;2023-03-14T02:36:12;18.89;53.20
65239;SHT30;51827;51.186;6.926;2023-03-14T02:37:15;18.89;53.18
65239;SHT30;51827;51.186;6.926;2023-03-14T02:39:19;18.89;53.16
65239;SHT30;51827;51.186;6.926;2023-03-14T02:39:58;18.91;53.15
65239;SHT30;51827;51.186;6.926;2023-03-14T02:40:58;18.89;53.16
65239;SHT30;51827;51.186;6.926;2023-03-14T02:41:59;18.89;53.17
65239;SHT30;51827;51.186;6.926;2023-03-14T02:42:59;18.91;53.15
65239;SHT30;51827;51.186;6.926;2023-03-14T02:43:59;18.88;53.18
65239;SHT30;51827;51.186;6.926;2023-03-14T02:46:21;18.89;53.17
65239;SHT30;51827;51.186;6.926;2023-03-14T02:47:27;18.88;53.13
65239;SHT30;51827;51.186;6.926;2023-03-14T02:48:34;18.88;53.14
65239;SHT30;51827;51.186;6.926;2023-03-14T02:49:36;18.91;53.15
65239;SHT30;51827;51.186;6.926;2023-03-14T02:50:37;18.88;53.15
65239;SHT30;51827;51.186;6.926;2023-03-14T02:51:38;18.86;53.14
65239;SHT30;51827;51.186;6.926;2023-03-14T02:52:39;18.89;53.16
65239;SHT30;51827;51.186;6.926;2023-03-14T02:53:39;18.89;53.16
65239;SHT30;51827;51.186;6.926;2023-03-14T02:54:40;18.89;53.13
65239;SHT30;51827;51.186;6.926;2023-03-14T02:55:44;18.91;53.19
65239;SHT30;51827;51.186;6.926;2023-03-14T02:56:45;18.89;53.15
65239;SHT30;51827;51.186;6.926;2023-03-14T02:57:45;18.89;53.16
65239;SHT30;51827;51.186;6.926;2023-03-14T02:58:45;18.89;53.17
65239;SHT30;51827;51.186;6.926;2023-03-14T02:59:45;18.88;53.17
65239;SHT30;51827;51.186;6.926;2023-03-14T03:00:46;18.86;53.14
65239;SHT30;51827;51.186;6.926;2023-03-14T03:01:46;18.89;53.16
65239;SHT30;51827;51.186;6.926;2023-03-14T03:02:47;18.88;53.16
65239;SHT30;51827;51.186;6.926;2023-03-14T03:03:47;18.89;53.16
65239;SHT30;51827;51.186;6.926;2023-03-14T03:04:47;18.89;53.15
65239;SHT30;51827;51.186;6.926;2023-03-14T03:05:52;18.88;53.15
65239;SHT30;51827;51.186;6.926;2023-03-14T03:06:52;18.89;53.17
65239;SHT30;51827;51.186;6.926;2023-03-14T03:07:53;18.88;53.14
65239;SHT30;51827;51.186;6.926;2023-03-14T03:08:53;18.85;53.14
65239;SHT30;51827;51.186;6.926;2023-03-14T03:09:53;18.88;53.16
65239;SHT30;51827;51.186;6.926;2023-03-14T03:10:54;18.88;53.14
65239;SHT30;51827;51.186;6.926;2023-03-14T03:11:56;18.86;53.14
65239;SHT30;51827;51.186;6.926;2023-03-14T03:12:56;18.88;53.15
65239;SHT30;51827;51.186;6.926;2023-03-14T03:13:56;18.88;53.11
65239;SHT30;51827;51.186;6.926;2023-03-14T03:14:57;18.88;53.12
65239;SHT30;51827;51.186;6.926;2023-03-14T03:15:57;18.88;53.08
65239;SHT30;51827;51.186;6.926;2023-03-14T03:16:57;18.88;53.16
65239;SHT30;51827;51.186;6.926;2023-03-14T03:17:57;18.86;53.14
65239;SHT30;51827;51.186;6.926;2023-03-14T03:18:58;18.86;53.13
65239;SHT30;51827;51.186;6.926;2023-03-14T03:19:58;18.86;53.07
65239;SHT30;51827;51.186;6.926;2023-03-14T03:21:02;18.88;53.12
65239;SHT30;51827;51.186;6.926;2023-03-14T03:22:03;18.89;53.08
65239;SHT30;51827;51.186;6.926;2023-03-14T03:23:03;18.86;53.06
65239;SHT30;51827;51.186;6.926;2023-03-14T03:24:04;18.88;53.08
65239;SHT30;51827;51.186;6.926;2023-03-14T03:25:06;18.89;53.05
65239;SHT30;51827;51.186;6.926;2023-03-14T03:26:09;18.88;53.08
65239;SHT30;51827;51.186;6.926;2023-03-14T03:27:09;18.86;53.03
65239;SHT30;51827;51.186;6.926;2023-03-14T03:28:09;18.88;53.07
65239;SHT30;51827;51.186;6.926;2023-03-14T03:29:09;18.86;53.08
65239;SHT30;51827;51.186;6.926;2023-03-14T03:30:10;18.86;53.13
65239;SHT30;51827;51.186;6.926;2023-03-14T03:31:11;18.88;53.06
65239;SHT30;51827;51.186;6.926;2023-03-14T03:32:12;18.86;53.09
65239;SHT30;51827;51.186;6.926;2023-03-14T03:33:12;18.86;53.09
65239;SHT30;51827;51.186;6.926;2023-03-14T03:34:13;18.88;53.08
65239;SHT30;51827;51.186;6.926;2023-03-14T03:35:13;18.86;53.06
65239;SHT30;51827;51.186;6.926;2023-03-14T03:36:14;18.86;53.08
65239;SHT30;51827;51.186;6.926;2023-03-14T03:37:14;18.88;53.10
65239;SHT30;51827;51.186;6.926;2023-03-14T03:38:14;18.86;53.07
65239;SHT30;51827;51.186;6.926;2023-03-14T03:39:15;18.86;53.08
65239;SHT30;51827;51.186;6.926;2023-03-14T03:40:15;18.86;53.10
65239;SHT30;51827;51.186;6.926;2023-03-14T03:41:15;18.84;53.10
65239;SHT30;51827;51.186;6.926;2023-03-14T03:42:16;18.86;53.10
65239;SHT30;51827;51.186;6.926;2023-03-14T03:43:16;18.88;53.06
65239;SHT30;51827;51.186;6.926;2023-03-14T03:44:16;18.88;53.12
65239;SHT30;51827;51.186;6.926;2023-03-14T03:45:16;18.86;53.03
65239;SHT30;51827;51.186;6.926;2023-03-14T03:46:17;18.86;53.09
65239;SHT30;51827;51.186;6.926;2023-03-14T03:47:17;18.86;53.08
65239;SHT30;51827;51.186;6.926;2023-03-14T03:48:17;18.86;53.10
65239;SHT30;51827;51.186;6.926;2023-03-14T03:49:17;18.86;53.09
65239;SHT30;51827;51.186;6.926;2023-03-14T03:50:18;18.85;53.08
65239;SHT30;51827;51.186;6.926;2023-03-14T03:51:18;18.86;53.09
65239;SHT30;51827;51.186;6.926;2023-03-14T03:52:18;18.84;53.10
65239;SHT30;51827;51.186;6.926;2023-03-14T03:53:19;18.86;53.11
65239;SHT30;51827;51.186;6.926;2023-03-14T03:54:19;18.85;53.11
65239;SHT30;51827;51.186;6.926;2023-03-14T03:55:19;18.86;53.11
65239;SHT30;51827;51.186;6.926;2023-03-14T03:56:19;18.88;53.05
65239;SHT30;51827;51.186;6.926;2023-03-14T03:57:20;18.88;53.06
65239;SHT30;51827;51.186;6.926;2023-03-14T03:58:20;18.86;53.03
65239;SHT30;51827;51.186;6.926;2023-03-14T03:59:21;18.86;53.08
65239;SHT30;51827;51.186;6.926;2023-03-14T04:00:21;18.88;53.12
65239;SHT30;51827;51.186;6.926;2023-03-14T04:01:21;18.84;53.08
65239;SHT30;51827;51.186;6.926;2023-03-14T04:02:22;18.84;53.07
65239;SHT30;51827;51.186;6.926;2023-03-14T04:03:22;18.85;53.08
65239;SHT30;51827;51.186;6.926;2023-03-14T04:04:22;18.88;53.07
65239;SHT30;51827;51.186;6.926;2023-03-14T04:05:23;18.84;53.03
65239;SHT30;51827;51.186;6.926;2023-03-14T04:06:23;18.85;53.04
65239;SHT30;51827;51.186;6.926;2023-03-14T04:07:23;18.86;53.06
65239;SHT30;51827;51.186;6.926;2023-03-14T04:08:23;18.86;53.05
65239;SHT30;51827;51.186;6.926;2023-03-14T04:09:24;18.86;53.11
65239;SHT30;51827;51.186;6.926;2023-03-14T04:10:24;18.82;53.10
65239;SHT30;51827;51.186;6.926;2023-03-14T04:11:24;18.85;53.07
65239;SHT30;51827;51.186;6.926;2023-03-14T04:12:25;18.85;53.04
65239;SHT30;51827;51.186;6.926;2023-03-14T04:13:25;18.85;53.06
65239;SHT30;51827;51.186;6.926;2023-03-14T04:14:26;18.84;53.06
65239;SHT30;51827;51.186;6.926;2023-03-14T04:15:26;18.85;53.04
65239;SHT30;51827;51.186;6.926;2023-03-14T04:16:26;18.85;53.03
65239;SHT30;51827;51.186;6.926;2023-03-14T04:17:27;18.84;53.06
65239;SHT30;51827;51.186;6.926;2023-03-14T04:18:27;18.85;53.04
65239;SHT30;51827;51.186;6.926;2023-03-14T04:19:27;18.85;53.07
65239;SHT30;51827;51.186;6.926;2023-03-14T04:20:27;18.85;53.02
65239;SHT30;51827;51.186;6.926;2023-03-14T04:21:28;18.86;53.07
65239;SHT30;51827;51.186;6.926;2023-03-14T04:22:28;18.85;53.08
65239;SHT30;51827;51.186;6.926;2023-03-14T04:23:28;18.84;53.07
65239;SHT30;51827;51.186;6.926;2023-03-14T04:24:29;18.84;53.11
65239;SHT30;51827;51.186;6.926;2023-03-14T04:25:29;18.85;53.16
65239;SHT30;51827;51.186;6.926;2023-03-14T04:26:29;18.84;53.13
65239;SHT30;51827;51.186;6.926;2023-03-14T04:27:29;18.85;53.10
65239;SHT30;51827;51.186;6.926;2023-03-14T04:28:30;18.82;53.08
65239;SHT30;51827;51.186;6.926;2023-03-14T04:29:30;18.85;53.09
65239;SHT30;51827;51.186;6.926;2023-03-14T04:30:30;18.86;53.07
65239;SHT30;51827;51.186;6.926;2023-03-14T04:31:31;18.86;53.07
65239;SHT30;51827;51.186;6.926;2023-03-14T04:32:31;18.84;53.04
65239;SHT30;51827;51.186;6.926;2023-03-14T04:33:31;18.84;53.03
65239;SHT30;51827;51.186;6.926;2023-03-14T04:34:31;18.88;53.03
65239;SHT30;51827;51.186;6.926;2023-03-14T04:35:31;18.86;53.07
65239;SHT30;51827;51.186;6.926;2023-03-14T04:36:32;18.84;53.06
65239;SHT30;51827;51.186;6.926;2023-03-14T04:37:32;18.85;53.17
65239;SHT30;51827;51.186;6.926;2023-03-14T04:38:33;18.88;53.20
65239;SHT30;51827;51.186;6.926;2023-03-14T04:39:33;18.85;53.19
65239;SHT30;51827;51.186;6.926;2023-03-14T04:40:33;18.85;53.21
65239;SHT30;51827;51.186;6.926;2023-03-14T04:41:33;18.86;53.25
65239;SHT30;51827;51.186;6.926;2023-03-14T04:42:34;18.84;53.22
65239;SHT30;51827;51.186;6.926;2023-03-14T04:43:34;18.85;53.26
65239;SHT30;51827;51.186;6.926;2023-03-14T04:44:34;18.85;53.32
65239;SHT30;51827;51.186;6.926;2023-03-14T04:45:34;18.86;53.38
65239;SHT30;51827;51.186;6.926;2023-03-14T04:46:35;18.85;53.38
65239;SHT30;51827;51.186;6.926;2023-03-14T04:47:35;18.88;53.37
65239;SHT30;51827;51.186;6.926;2023-03-14T04:48:35;18.84;53.38
65239;SHT30;51827;51.186;6.926;2023-03-14T04:49:35;18.85;53.41
65239;SHT30;51827;51.186;6.926;2023-03-14T04:50:36;18.88;53.50
65239;SHT30;51827;51.186;6.926;2023-03-14T04:51:36;18.85;53.67
65239;SHT30;51827;51.186;6.926;2023-03-14T04:52:36;18.85;53.80
65239;SHT30;51827;51.186;6.926;2023-03-14T04:53:36;18.86;53.82
65239;SHT30;51827;51.186;6.926;2023-03-14T04:54:37;18.85;53.77
65239;SHT30;51827;51.186;6.926;2023-03-14T04:55:37;18.88;53.75
65239;SHT30;51827;51.186;6.926;2023-03-14T04:56:37;18.85;53.71
65239;SHT30;51827;51.186;6.926;2023-03-14T04:57:37;18.85;53.69
65239;SHT30;51827;51.186;6.926;2023-03-14T04:58:38;18.84;53.70
65239;SHT30;51827;51.186;6.926;2023-03-14T04:59:38;18.85;53.69
65239;SHT30;51827;51.186;6.926;2023-03-14T05:00:38;18.86;53.68
65239;SHT30;51827;51.186;6.926;2023-03-14T05:01:38;18.86;53.63
65239;SHT30;51827;51.186;6.926;2023-03-14T05:02:39;18.88;53.66
65239;SHT30;51827;51.186;6.926;2023-03-14T05:03:39;18.86;53.63
65239;SHT30;51827;51.186;6.926;2023-03-14T05:04:39;18.85;53.66
65239;SHT30;51827;51.186;6.926;2023-03-14T05:05:39;18.85;53.64
65239;SHT30;51827;51.186;6.926;2023-03-14T05:06:40;18.86;53.67
65239;SHT30;51827;51.186;6.926;2023-03-14T05:07:40;18.84;54.12
65239;SHT30;51827;51.186;6.926;2023-03-14T05:08:40;18.85;54.56
65239;SHT30;51827;51.186;6.926;2023-03-14T05:09:40;18.91;54.71
65239;SHT30;51827;51.186;6.926;2023-03-14T05:10:41;18.89;54.87
65239;SHT30;51827;51.186;6.926;2023-03-14T05:11:41;18.89;54.76
65239;SHT30;51827;51.186;6.926;2023-03-14T05:12:41;18.89;54.64
65239;SHT30;51827;51.186;6.926;2023-03-14T05:13:42;18.91;54.52
65239;SHT30;51827;51.186;6.926;2023-03-14T05:14:42;18.91;54.46
65239;SHT30;51827;51.186;6.926;2023-03-14T05:15:42;18.91;54.41
65239;SHT30;51827;51.186;6.926;2023-03-14T05:16:43;18.91;54.30
65239;SHT30;51827;51.186;6.926;2023-03-14T05:17:43;18.92;54.29
65239;SHT30;51827;51.186;6.926;2023-03-14T05:18:43;18.89;54.29
65239;SHT30;51827;51.186;6.926;2023-03-14T05:19:44;18.91;54.46
65239;SHT30;51827;51.186;6.926;2023-03-14T05:20:44;18.89;54.68
65239;SHT30;51827;51.186;6.926;2023-03-14T05:21:45;18.92;54.77
65239;SHT30;51827;51.186;6.926;2023-03-14T05:22:45;18.91;54.81
65239;SHT30;51827;51.186;6.926;2023-03-14T05:23:45;18.91;54.80
65239;SHT30;51827;51.186;6.926;2023-03-14T05:24:45;18.91;54.85
65239;SHT30;51827;51.186;6.926;2023-03-14T05:25:46;18.91;54.80
65239;SHT30;51827;51.186;6.926;2023-03-14T05:26:46;18.89;54.82
65239;SHT30;51827;51.186;6.926;2023-03-14T05:27:46;18.91;54.82
65239;SHT30;51827;51.186;6.926;2023-03-14T05:28:46;18.92;54.77
65239;SHT30;51827;51.186;6.926;2023-03-14T05:29:47;18.91;54.76
65239;SHT30;51827;51.186;6.926;2023-03-14T05:30:47;18.92;54.74
65239;SHT30;51827;51.186;6.926;2023-03-14T05:31:47;18.95;54.72
65239;SHT30;51827;51.186;6.926;2023-03-14T05:32:48;18.94;54.71
65239;SHT30;51827;51.186;6.926;2023-03-14T05:33:48;18.96;54.70
65239;SHT30;51827;51.186;6.926;2023-03-14T05:34:48;18.96;54.70
65239;SHT30;51827;51.186;6.926;2023-03-14T05:35:48;18.96;54.68
65239;SHT30;51827;51.186;6.926;2023-03-14T05:36:49;18.95;54.63
65239;SHT30;51827;51.186;6.926;2023-03-14T05:37:49;18.94;54.66
65239;SHT30;51827;51.186;6.926;2023-03-14T05:38:49;18.95;54.71
65239;SHT30;51827;51.186;6.926;2023-03-14T05:39:50;18.94;54.67
65239;SHT30;51827;51.186;6.926;2023-03-14T05:40:50;18.94;54.64
65239;SHT30;51827;51.186;6.926;2023-03-14T05:41:50;18.96;54.62
65239;SHT30;51827;51.186;6.926;2023-03-14T05:42:51;18.95;54.62
65239;SHT30;51827;51.186;6.926;2023-03-14T05:43:51;18.95;54.60
65239;SHT30;51827;51.186;6.926;2023-03-14T05:44:51;18.94;54.60
65239;SHT30;51827;51.186;6.926;2023-03-14T05:45:51;18.98;54.56
65239;SHT30;51827;51.186;6.926;2023-03-14T05:46:52;18.95;54.59
65239;SHT30;51827;51.186;6.926;2023-03-14T05:47:52;18.98;54.53
65239;SHT30;51827;51.186;6.926;2023-03-14T05:48:52;18.98;54.54
65239;SHT30;51827;51.186;6.926;2023-03-14T05:49:52;18.96;54.49
65239;SHT30;51827;51.186;6.926;2023-03-14T05:50:56;19.00;54.50
65239;SHT30;51827;51.186;6.926;2023-03-14T05:51:57;18.98;54.48
65239;SHT30;51827;51.186;6.926;2023-03-14T05:52:57;18.99;54.46
65239;SHT30;51827;51.186;6.926;2023-03-14T05:53:57;18.96;54.48
65239;SHT30;51827;51.186;6.926;2023-03-14T05:54:57;18.95;54.42
65239;SHT30;51827;51.186;6.926;2023-03-14T05:55:58;18.96;54.42
65239;SHT30;51827;51.186;6.926;2023-03-14T05:56:58;18.98;54.43
65239;SHT30;51827;51.186;6.926;2023-03-14T05:57:58;18.98;54.41
65239;SHT30;51827;51.186;6.926;2023-03-14T05:58:58;18.95;54.38
65239;SHT30;51827;51.186;6.926;2023-03-14T05:59:59;18.98;54.37
65239;SHT30;51827;51.186;6.926;2023-03-14T06:01:03;18.98;54.35
65239;SHT30;51827;51.186;6.926;2023-03-14T06:02:04;18.96;54.36
65239;SHT30;51827;51.186;6.926;2023-03-14T06:03:04;18.99;54.31
65239;SHT30;51827;51.186;6.926;2023-03-14T06:04:04;19.02;54.29
65239;SHT30;51827;51.186;6.926;2023-03-14T06:05:06;18.99;54.28
65239;SHT30;51827;51.186;6.926;2023-03-14T06:06:07;18.98;54.27
65239;SHT30;51827;51.186;6.926;2023-03-14T06:07:07;19.03;54.24
65239;SHT30;51827;51.186;6.926;2023-03-14T06:08:07;18.98;54.28
65239;SHT30;51827;51.186;6.926;2023-03-14T06:09:08;18.96;54.27
65239;SHT30;51827;51.186;6.926;2023-03-14T06:10:08;18.96;54.24
65239;SHT30;51827;51.186;6.926;2023-03-14T06:11:09;18.98;54.20
65239;SHT30;51827;51.186;6.926;2023-03-14T06:12:09;18.99;54.22
65239;SHT30;51827;51.186;6.926;2023-03-14T06:13:09;18.99;54.18
65239;SHT30;51827;51.186;6.926;2023-03-14T06:14:10;18.99;54.20
65239;SHT30;51827;51.186;6.926;2023-03-14T06:15:10;19.00;54.14
65239;SHT30;51827;51.186;6.926;2023-03-14T06:16:10;19.00;54.13
65239;SHT30;51827;51.186;6.926;2023-03-14T06:17:11;19.02;54.14
65239;SHT30;51827;51.186;6.926;2023-03-14T06:18:11;18.99;54.11
65239;SHT30;51827;51.186;6.926;2023-03-14T06:19:11;19.03;54.12
65239;SHT30;51827;51.186;6.926;2023-03-14T06:20:11;18.99;54.09
65239;SHT30;51827;51.186;6.926;2023-03-14T06:21:12;18.99;54.08
65239;SHT30;51827;51.186;6.926;2023-03-14T06:22:12;18.99;54.09
65239;SHT30;51827;51.186;6.926;2023-03-14T06:23:13;19.00;54.03
65239;SHT30;51827;51.186;6.926;2023-03-14T06:24:13;18.99;53.96
65239;SHT30;51827;51.186;6.926;2023-03-14T06:25:13;19.02;54.01
65239;SHT30;51827;51.186;6.926;2023-03-14T06:26:13;19.00;54.00
65239;SHT30;51827;51.186;6.926;2023-03-14T06:27:14;18.96;53.93
65239;SHT30;51827;51.186;6.926;2023-03-14T06:28:14;19.03;53.95
65239;SHT30;51827;51.186;6.926;2023-03-14T06:29:14;19.02;53.92
65239;SHT30;51827;51.186;6.926;2023-03-14T06:30:15;19.00;53.89